Artondale, Washington
Current Conditions -  °F | °C
As of 2:53 PM on Wednesday 22 Oct 2014 (Local Time) from KTIW Reporting Station
Light Rain Light Rain  
Wind Chill: 56°   Ceiling: 7500
Heat Index: 56°   Visibility: 6mi
Dew Point: 54°   Wind: 5mph
Humidity: 93%   Direction: NA
Pressure: 29.65"   Gusts: NA
Location:  47.2986°N, 122.616°W
Report Text: KTIW 222153Z VRB04KT 6SM -RA BR OVC075 13/12 A2965 RMK AO2 SLP039 P0008 T01330122
Loading
Personal Weather Stations






























Interactive Weather Map
Tropical Storm Tracking
New forecast layout! Learn more

10-Day Weather Forecast

Advertisements
Track Severe Weather on mobile